Time;durP1;ratioP1;P1;durP2;ratioP2;P2;SDS_P1;SDS_P2;PMS_P1;PMS_P2;Temp;Humidity;BMP_temperature;BMP_pressure;BME280_temperature;BME280_humidity;BME280_pressure;Samples;Min_cycle;Max_cycle;Signal;HPM_P1;HPM_P2
2021/06/07 00:01:01;;;;;;;3.78;1.70;;;;;;;;;;5010356;28;20037;-62
2021/06/07 00:03:28;;;;;;;2.42;2.08;;;;;;;;;;5009175;28;20037;-62
2021/06/07 00:05:54;;;;;;;2.75;1.70;;;;;;;;;;5007350;28;20057;-61
2021/06/07 00:08:21;;;;;;;2.13;1.92;;;;;;;;;;5008702;28;20096;-61
2021/06/07 00:10:47;;;;;;;2.13;1.75;;;;;;;;;;5010084;28;20037;-61
2021/06/07 00:13:13;;;;;;;2.35;1.73;;;;;;;;;;5009934;28;20502;-61
2021/06/07 00:15:39;;;;;;;2.63;2.20;;;;;;;;;;5008680;28;20038;-60
2021/06/07 00:18:06;;;;;;;1.95;1.67;;;;;;;;;;5007959;28;20029;-60
2021/06/07 00:20:33;;;;;;;2.28;1.90;;;;;;;;;;5007535;28;20499;-60
2021/06/07 00:22:59;;;;;;;2.13;1.95;;;;;;;;;;5007621;28;20065;-60
2021/06/07 00:25:26;;;;;;;2.30;2.10;;;;;;;;;;5009098;28;20034;-60
2021/06/07 00:27:52;;;;;;;2.17;1.88;;;;;;;;;;5011008;28;20026;-60
2021/06/07 00:30:18;;;;;;;3.05;1.98;;;;;;;;;;5009744;28;20030;-60
2021/06/07 00:32:44;;;;;;;4.60;2.03;;;;;;;;;;5009930;28;20018;-63
2021/06/07 00:35:10;;;;;;;3.92;1.60;;;;;;;;;;5007598;28;20046;-62
2021/06/07 00:37:36;;;;;;;4.05;1.90;;;;;;;;;;5007832;28;20519;-61
2021/06/07 00:40:04;;;;;;;2.33;2.13;;;;;;;;;;5004007;28;20037;-60
2021/06/07 00:42:30;;;;;;;3.22;1.98;;;;;;;;;;5007065;28;20125;-61
2021/06/07 00:44:56;;;;;;;2.13;1.80;;;;;;;;;;5009438;28;20026;-61
2021/06/07 00:47:22;;;;;;;2.03;1.83;;;;;;;;;;5010664;28;20026;-61
2021/06/07 00:49:48;;;;;;;2.35;1.70;;;;;;;;;;5009626;28;20061;-61
2021/06/07 00:52:14;;;;;;;4.38;1.60;;;;;;;;;;5008857;28;20034;-61
2021/06/07 00:54:41;;;;;;;3.55;2.25;;;;;;;;;;5007838;28;20045;-61
2021/06/07 00:57:07;;;;;;;1.80;1.70;;;;;;;;;;5018606;28;20048;-61
2021/06/07 00:59:33;;;;;;;3.42;1.98;;;;;;;;;;5013941;28;20056;-61
2021/06/07 01:01:59;;;;;;;2.22;1.70;;;;;;;;;;5012607;28;20022;-61
2021/06/07 01:04:25;;;;;;;3.75;1.90;;;;;;;;;;5012777;28;20025;-62
2021/06/07 01:06:51;;;;;;;4.45;2.00;;;;;;;;;;5011316;28;20103;-61
2021/06/07 01:09:18;;;;;;;4.03;2.08;;;;;;;;;;5013269;28;20073;-60
2021/06/07 01:11:44;;;;;;;3.20;2.10;;;;;;;;;;5012455;28;20030;-61
2021/06/07 01:14:10;;;;;;;5.18;2.20;;;;;;;;;;5012954;28;20153;-61
2021/06/07 01:16:36;;;;;;;3.10;1.98;;;;;;;;;;5012541;28;20037;-61
2021/06/07 01:19:04;;;;;;;3.95;1.77;;;;;;;;;;5012799;28;20026;-61
2021/06/07 01:21:30;;;;;;;2.55;2.20;;;;;;;;;;5011219;28;20160;-61
2021/06/07 01:23:56;;;;;;;3.40;1.80;;;;;;;;;;5010778;28;20103;-61
2021/06/07 01:26:24;;;;;;;1.75;1.50;;;;;;;;;;5012807;28;20419;-60
2021/06/07 01:28:50;;;;;;;2.97;2.10;;;;;;;;;;5012730;28;20030;-61
2021/06/07 01:31:17;;;;;;;2.50;1.95;;;;;;;;;;5017446;28;20075;-61
2021/06/07 01:33:45;;;;;;;2.60;1.83;;;;;;;;;;5013123;28;20044;-62
2021/06/07 01:36:11;;;;;;;2.45;1.85;;;;;;;;;;5012221;28;20049;-62
2021/06/07 01:38:38;;;;;;;3.17;2.05;;;;;;;;;;5008998;28;20055;-62
2021/06/07 01:41:08;;;;;;;3.53;1.77;;;;;;;;;;5012563;28;20096;-62
2021/06/07 01:43:36;;;;;;;2.92;1.45;;;;;;;;;;5012234;28;20022;-62
2021/06/07 01:46:03;;;;;;;4.85;1.90;;;;;;;;;;5013373;28;20026;-62
2021/06/07 01:48:29;;;;;;;4.32;2.00;;;;;;;;;;5013308;28;20033;-62
2021/06/07 01:50:57;;;;;;;2.30;2.10;;;;;;;;;;5013087;28;20391;-61
2021/06/07 01:53:25;;;;;;;1.95;1.75;;;;;;;;;;5009862;28;20161;-61
2021/06/07 01:55:53;;;;;;;1.95;1.85;;;;;;;;;;5012264;28;20091;-63
2021/06/07 01:58:20;;;;;;;8.32;2.10;;;;;;;;;;5014737;28;20029;-62
2021/06/07 02:00:46;;;;;;;5.60;1.80;;;;;;;;;;5013941;28;20098;-62
2021/06/07 02:03:13;;;;;;;4.57;1.60;;;;;;;;;;5015429;28;20088;-62
2021/06/07 02:05:41;;;;;;;1.88;1.70;;;;;;;;;;5011592;28;20033;-61
2021/06/07 02:08:09;;;;;;;2.20;2.00;;;;;;;;;;5009214;28;20515;-61
2021/06/07 02:10:37;;;;;;;4.20;2.17;;;;;;;;;;5012331;28;20022;-60
2021/06/07 02:13:04;;;;;;;1.98;1.88;;;;;;;;;;5011066;28;20041;-60
2021/06/07 02:15:30;;;;;;;1.98;1.88;;;;;;;;;;5009296;28;20095;-60
2021/06/07 02:18:00;;;;;;;1.80;1.70;;;;;;;;;;5009447;28;20065;-61
2021/06/07 02:20:26;;;;;;;2.28;1.80;;;;;;;;;;5011358;28;20044;-61
2021/06/07 02:22:52;;;;;;;2.10;1.75;;;;;;;;;;5010805;28;20115;-61
2021/06/07 02:25:19;;;;;;;4.32;2.20;;;;;;;;;;5011484;28;20590;-61
2021/06/07 02:27:45;;;;;;;1.90;1.70;;;;;;;;;;5016395;28;20030;-60
2021/06/07 02:30:13;;;;;;;1.70;1.60;;;;;;;;;;5010165;28;20522;-62
2021/06/07 02:32:40;;;;;;;2.58;1.88;;;;;;;;;;5014965;28;20401;-61
2021/06/07 02:35:06;;;;;;;1.80;1.52;;;;;;;;;;5015412;28;20033;-61
2021/06/07 02:37:33;;;;;;;2.08;1.67;;;;;;;;;;5015184;28;20030;-62
2021/06/07 02:39:59;;;;;;;5.13;1.90;;;;;;;;;;5016692;28;20450;-62
2021/06/07 02:42:25;;;;;;;1.80;1.70;;;;;;;;;;5010024;28;20026;-62
2021/06/07 02:44:51;;;;;;;1.67;1.58;;;;;;;;;;5010911;28;20018;-62
2021/06/07 02:47:17;;;;;;;3.28;1.65;;;;;;;;;;5008906;28;20033;-62
2021/06/07 02:49:43;;;;;;;2.90;1.65;;;;;;;;;;5008268;28;20079;-62
2021/06/07 02:52:10;;;;;;;1.77;1.67;;;;;;;;;;5009115;28;20810;-62
2021/06/07 02:54:36;;;;;;;1.48;1.38;;;;;;;;;;5009867;28;20037;-62
2021/06/07 02:57:03;;;;;;;2.92;1.73;;;;;;;;;;5012139;28;20128;-62
2021/06/07 02:59:29;;;;;;;1.80;1.67;;;;;;;;;;5012163;28;20030;-61
2021/06/07 03:01:55;;;;;;;2.45;1.48;;;;;;;;;;5005144;28;20112;-61
2021/06/07 03:04:21;;;;;;;3.80;2.10;;;;;;;;;;5012855;28;20043;-61
2021/06/07 03:06:47;;;;;;;6.03;2.13;;;;;;;;;;5009193;28;20333;-61
2021/06/07 03:09:13;;;;;;;2.10;1.60;;;;;;;;;;5009346;28;20040;-61
2021/06/07 03:11:39;;;;;;;1.45;1.35;;;;;;;;;;5006474;28;20045;-64
2021/06/07 03:14:05;;;;;;;6.03;2.00;;;;;;;;;;5010878;28;20489;-64
2021/06/07 03:16:31;;;;;;;2.97;1.55;;;;;;;;;;5009076;28;20119;-64
2021/06/07 03:18:57;;;;;;;6.53;2.13;;;;;;;;;;5009451;28;20476;-64
2021/06/07 03:21:24;;;;;;;1.70;1.30;;;;;;;;;;5007044;28;20056;-63
2021/06/07 03:23:50;;;;;;;2.47;1.90;;;;;;;;;;5007952;28;20525;-63
2021/06/07 03:26:16;;;;;;;6.68;1.90;;;;;;;;;;5010049;28;20038;-63
2021/06/07 03:28:42;;;;;;;5.18;1.58;;;;;;;;;;5012504;28;20058;-63
2021/06/07 03:31:08;;;;;;;6.07;2.00;;;;;;;;;;5014971;28;20447;-63
2021/06/07 03:33:35;;;;;;;4.55;1.80;;;;;;;;;;5017537;28;20072;-62
2021/06/07 03:36:01;;;;;;;1.65;1.55;;;;;;;;;;5012517;28;20086;-62
2021/06/07 03:38:28;;;;;;;3.63;1.70;;;;;;;;;;5009689;28;20026;-62
2021/06/07 03:40:55;;;;;;;2.60;1.50;;;;;;;;;;5009338;28;20034;-61
2021/06/07 03:43:23;;;;;;;4.68;1.50;;;;;;;;;;5010395;28;20026;-61
2021/06/07 03:45:49;;;;;;;2.13;1.70;;;;;;;;;;5010901;28;20076;-61
2021/06/07 03:48:15;;;;;;;3.95;1.60;;;;;;;;;;5006957;28;20504;-61
2021/06/07 03:50:41;;;;;;;2.50;1.60;;;;;;;;;;5011541;28;20025;-61
2021/06/07 03:53:09;;;;;;;2.95;1.55;;;;;;;;;;5009689;28;20026;-61
2021/06/07 03:55:35;;;;;;;3.65;1.60;;;;;;;;;;5008946;28;20369;-61
2021/06/07 03:58:01;;;;;;;3.25;1.70;;;;;;;;;;5009214;28;20061;-61
2021/06/07 04:00:30;;;;;;;2.75;1.40;;;;;;;;;;5009589;28;20632;-62
2021/06/07 04:02:56;;;;;;;3.15;1.80;;;;;;;;;;5012103;28;20022;-63
2021/06/07 04:05:23;;;;;;;1.98;1.40;;;;;;;;;;5008663;28;20037;-63
2021/06/07 04:07:49;;;;;;;5.85;1.77;;;;;;;;;;5006011;28;20048;-64
2021/06/07 04:10:20;;;;;;;3.53;1.42;;;;;;;;;;5010585;28;20116;-63
2021/06/07 04:12:46;;;;;;;3.60;1.67;;;;;;;;;;5010974;28;20071;-61
2021/06/07 04:15:14;;;;;;;2.63;1.50;;;;;;;;;;5010713;28;20037;-61
2021/06/07 04:17:40;;;;;;;5.03;1.40;;;;;;;;;;5016128;28;20033;-62
2021/06/07 04:20:07;;;;;;;5.57;1.80;;;;;;;;;;5014887;28;20030;-62
2021/06/07 04:22:33;;;;;;;2.28;1.60;;;;;;;;;;5015125;28;20112;-62
2021/06/07 04:25:00;;;;;;;6.60;3.15;;;;;;;;;;5015936;28;20164;-61
2021/06/07 04:27:26;;;;;;;3.33;1.60;;;;;;;;;;5015103;28;20060;-61
2021/06/07 04:29:52;;;;;;;3.58;1.80;;;;;;;;;;5014768;28;20223;-61
2021/06/07 04:32:18;;;;;;;1.50;1.40;;;;;;;;;;5005782;28;20022;-60
2021/06/07 04:34:44;;;;;;;2.40;1.75;;;;;;;;;;5008276;28;20124;-60
2021/06/07 04:37:10;;;;;;;5.25;1.88;;;;;;;;;;5007213;28;20037;-60
2021/06/07 04:39:37;;;;;;;1.92;1.60;;;;;;;;;;5008957;28;20084;-60
2021/06/07 04:42:03;;;;;;;2.15;1.65;;;;;;;;;;5010171;28;20369;-62
2021/06/07 04:44:29;;;;;;;3.58;1.85;;;;;;;;;;5008467;28;20045;-59
2021/06/07 04:46:55;;;;;;;2.20;1.63;;;;;;;;;;5010018;28;20071;-60
2021/06/07 04:49:22;;;;;;;3.60;1.70;;;;;;;;;;5007922;28;20671;-59
2021/06/07 04:51:48;;;;;;;2.50;1.85;;;;;;;;;;5006142;28;20108;-60
2021/06/07 04:54:14;;;;;;;2.97;1.45;;;;;;;;;;5007401;28;20033;-60
2021/06/07 04:56:40;;;;;;;3.97;2.00;;;;;;;;;;5004299;28;20181;-60
2021/06/07 04:59:06;;;;;;;4.75;1.92;;;;;;;;;;5009694;28;20518;-60
2021/06/07 05:01:32;;;;;;;3.15;1.45;;;;;;;;;;5011333;28;20100;-62
2021/06/07 05:03:58;;;;;;;2.47;2.17;;;;;;;;;;5008006;28;20053;-63
2021/06/07 05:06:25;;;;;;;1.85;1.67;;;;;;;;;;5006640;28;20033;-64
2021/06/07 05:08:51;;;;;;;1.55;1.30;;;;;;;;;;5008370;28;20077;-62
2021/06/07 05:11:17;;;;;;;3.03;1.88;;;;;;;;;;5008326;28;20527;-63
2021/06/07 05:13:43;;;;;;;2.33;1.88;;;;;;;;;;5006767;28;20029;-67
2021/06/07 05:16:10;;;;;;;5.55;2.05;;;;;;;;;;5004569;28;20337;-65
2021/06/07 05:18:37;;;;;;;5.07;1.85;;;;;;;;;;5005304;28;20139;-65
2021/06/07 05:21:03;;;;;;;3.63;1.70;;;;;;;;;;5007139;28;20069;-64
2021/06/07 05:23:29;;;;;;;3.40;1.90;;;;;;;;;;5008330;28;20090;-62
2021/06/07 05:25:57;;;;;;;4.88;2.13;;;;;;;;;;5012348;28;20057;-62
2021/06/07 05:28:23;;;;;;;6.20;2.08;;;;;;;;;;5015594;28;20038;-61
2021/06/07 05:30:50;;;;;;;2.58;2.05;;;;;;;;;;5012615;28;20038;-64
2021/06/07 05:33:16;;;;;;;3.67;1.70;;;;;;;;;;5013631;28;20484;-63
2021/06/07 05:35:44;;;;;;;2.72;2.15;;;;;;;;;;5013861;28;20065;-61
2021/06/07 05:38:11;;;;;;;7.10;2.30;;;;;;;;;;5011311;28;20725;-60
2021/06/07 05:40:38;;;;;;;3.00;2.20;;;;;;;;;;5015079;28;20554;-61
2021/06/07 05:43:04;;;;;;;6.32;2.15;;;;;;;;;;5017068;28;20087;-59
2021/06/07 05:45:31;;;;;;;1.77;1.63;;;;;;;;;;5016195;28;20119;-59
2021/06/07 05:47:58;;;;;;;4.43;2.20;;;;;;;;;;5016734;28;20022;-59
2021/06/07 05:50:25;;;;;;;3.10;2.05;;;;;;;;;;5018398;28;20109;-59
2021/06/07 05:52:51;;;;;;;5.25;1.88;;;;;;;;;;5013630;28;20018;-59
2021/06/07 05:55:23;;;;;;;4.22;2.20;;;;;;;;;;5015710;28;20124;-59
2021/06/07 05:57:50;;;;;;;5.47;2.17;;;;;;;;;;5017262;28;20034;-59
2021/06/07 06:00:17;;;;;;;3.63;1.88;;;;;;;;;;5016641;28;20507;-60
2021/06/07 06:02:44;;;;;;;3.08;2.55;;;;;;;;;;5016890;28;20033;-59
2021/06/07 06:05:10;;;;;;;2.03;1.73;;;;;;;;;;5018602;28;20119;-60
2021/06/07 06:07:37;;;;;;;1.98;1.80;;;;;;;;;;5015386;28;20128;-60
2021/06/07 06:10:03;;;;;;;4.03;1.83;;;;;;;;;;5017088;28;20438;-59
2021/06/07 06:12:30;;;;;;;6.68;2.42;;;;;;;;;;5014537;28;20069;-59
2021/06/07 06:14:56;;;;;;;3.45;1.90;;;;;;;;;;5011503;28;20179;-59
2021/06/07 06:17:22;;;;;;;6.07;2.30;;;;;;;;;;5017621;28;20118;-59
2021/06/07 06:19:49;;;;;;;5.85;2.03;;;;;;;;;;5016344;28;20036;-59
2021/06/07 06:22:15;;;;;;;3.92;2.72;;;;;;;;;;5012870;28;20026;-59
2021/06/07 06:24:41;;;;;;;3.55;1.83;;;;;;;;;;5015570;28;20028;-59
2021/06/07 06:27:08;;;;;;;4.75;2.30;;;;;;;;;;5013812;28;20260;-59
2021/06/07 06:29:35;;;;;;;4.95;2.17;;;;;;;;;;5012899;28;20076;-60
2021/06/07 06:32:01;;;;;;;3.58;2.20;;;;;;;;;;5015106;28;20065;-59
2021/06/07 06:34:27;;;;;;;3.20;2.08;;;;;;;;;;5014030;28;20123;-59
2021/06/07 06:36:53;;;;;;;4.90;1.88;;;;;;;;;;5008536;28;20053;-59
2021/06/07 06:39:19;;;;;;;4.05;2.40;;;;;;;;;;5009024;28;20087;-59
2021/06/07 06:41:45;;;;;;;5.18;2.50;;;;;;;;;;5011393;28;20026;-59
2021/06/07 06:44:11;;;;;;;3.28;1.85;;;;;;;;;;5011974;28;20404;-59
2021/06/07 06:46:38;;;;;;;6.43;2.05;;;;;;;;;;5012544;28;20029;-59
2021/06/07 06:49:04;;;;;;;3.42;1.85;;;;;;;;;;5013413;28;20030;-59
2021/06/07 06:51:31;;;;;;;3.83;1.88;;;;;;;;;;5011466;28;20137;-58
2021/06/07 06:53:57;;;;;;;2.47;2.10;;;;;;;;;;5011167;28;20025;-59
2021/06/07 06:56:23;;;;;;;1.83;1.70;;;;;;;;;;5014385;28;20041;-59
2021/06/07 06:58:49;;;;;;;2.72;2.40;;;;;;;;;;5013924;28;20041;-61
2021/06/07 07:01:16;;;;;;;3.33;1.90;;;;;;;;;;5013484;28;20049;-60
2021/06/07 07:03:43;;;;;;;3.13;2.03;;;;;;;;;;5010994;28;20106;-61
2021/06/07 07:06:09;;;;;;;2.17;1.90;;;;;;;;;;5012419;28;20459;-61
2021/06/07 07:08:36;;;;;;;3.28;1.90;;;;;;;;;;5010935;28;20711;-64
2021/06/07 07:11:02;;;;;;;3.75;1.85;;;;;;;;;;5007748;28;20221;-62
2021/06/07 07:13:28;;;;;;;7.28;1.85;;;;;;;;;;5006561;28;20133;-61
2021/06/07 07:15:54;;;;;;;3.58;1.77;;;;;;;;;;5011650;28;20527;-68
2021/06/07 07:18:20;;;;;;;3.67;1.92;;;;;;;;;;5010905;28;20040;-66
2021/06/07 07:20:47;;;;;;;3.95;1.80;;;;;;;;;;5010603;28;20068;-65
2021/06/07 07:23:13;;;;;;;2.30;1.90;;;;;;;;;;5013227;28;20689;-67
2021/06/07 07:25:40;;;;;;;1.70;1.60;;;;;;;;;;5008541;28;20087;-68
2021/06/07 07:28:07;;;;;;;4.65;1.80;;;;;;;;;;5011032;28;20030;-64
2021/06/07 07:30:34;;;;;;;1.60;1.48;;;;;;;;;;5008742;28;20560;-63
2021/06/07 07:33:01;;;;;;;2.13;1.75;;;;;;;;;;5009630;28;20037;-64
2021/06/07 07:35:28;;;;;;;1.98;1.88;;;;;;;;;;5006684;28;20041;-60
2021/06/07 07:37:54;;;;;;;1.95;1.60;;;;;;;;;;5006161;28;20022;-60
2021/06/07 07:40:21;;;;;;;2.80;1.65;;;;;;;;;;5008198;28;20108;-60
2021/06/07 07:42:48;;;;;;;10.27;4.05;;;;;;;;;;5009107;28;20034;-60
2021/06/07 07:45:16;;;;;;;15.10;2.40;;;;;;;;;;5010192;28;20024;-63
2021/06/07 07:47:42;;;;;;;5.22;1.83;;;;;;;;;;5009805;28;20041;-60
2021/06/07 07:50:10;;;;;;;2.33;1.50;;;;;;;;;;5009660;28;20034;-60
2021/06/07 07:52:36;;;;;;;2.80;2.03;;;;;;;;;;5006293;28;20607;-61
2021/06/07 07:55:03;;;;;;;3.42;1.65;;;;;;;;;;5006891;28;20042;-60
2021/06/07 07:57:29;;;;;;;3.65;2.72;;;;;;;;;;5010365;28;20030;-60
2021/06/07 07:59:55;;;;;;;5.68;2.25;;;;;;;;;;5008252;28;20021;-59
2021/06/07 08:02:21;;;;;;;2.33;2.08;;;;;;;;;;5008246;28;20034;-60
2021/06/07 08:04:48;;;;;;;4.88;2.22;;;;;;;;;;5008796;28;20409;-59
2021/06/07 08:07:14;;;;;;;4.60;2.60;;;;;;;;;;5005478;28;20136;-59
2021/06/07 08:09:40;;;;;;;2.72;2.53;;;;;;;;;;5007490;28;20025;-61
2021/06/07 08:12:06;;;;;;;6.38;2.58;;;;;;;;;;5008686;28;20495;-60
2021/06/07 08:14:32;;;;;;;4.65;2.35;;;;;;;;;;5009783;28;20476;-60
2021/06/07 08:16:58;;;;;;;5.25;2.70;;;;;;;;;;5012746;28;20026;-58
2021/06/07 08:19:26;;;;;;;4.25;2.53;;;;;;;;;;5011763;28;20404;-61
2021/06/07 08:21:52;;;;;;;2.72;2.38;;;;;;;;;;5010779;28;20605;-59
2021/06/07 08:24:18;;;;;;;4.63;2.80;;;;;;;;;;5010733;28;20444;-59
2021/06/07 08:26:44;;;;;;;3.38;2.58;;;;;;;;;;5011789;28;20037;-62
2021/06/07 08:29:10;;;;;;;5.22;2.58;;;;;;;;;;5013154;28;20144;-58
2021/06/07 08:31:37;;;;;;;4.95;2.70;;;;;;;;;;5010811;28;20060;-59
2021/06/07 08:34:03;;;;;;;6.15;3.08;;;;;;;;;;5010894;28;20388;-58
2021/06/07 08:36:29;;;;;;;9.95;2.90;;;;;;;;;;5009231;28;20047;-61
2021/06/07 08:38:56;;;;;;;5.43;2.83;;;;;;;;;;5009929;28;20156;-59
2021/06/07 08:41:22;;;;;;;4.30;2.55;;;;;;;;;;5011092;28;20629;-62
2021/06/07 08:43:48;;;;;;;4.70;2.83;;;;;;;;;;5010231;28;20034;-59
2021/06/07 08:46:14;;;;;;;6.45;2.60;;;;;;;;;;5011850;28;20029;-62
2021/06/07 08:48:40;;;;;;;5.18;2.90;;;;;;;;;;5012670;28;20033;-59
2021/06/07 08:51:07;;;;;;;4.32;2.60;;;;;;;;;;5011485;28;20040;-61
2021/06/07 08:53:33;;;;;;;5.47;2.70;;;;;;;;;;5009827;28;20069;-63
2021/06/07 08:55:59;;;;;;;5.53;2.80;;;;;;;;;;5012088;28;20042;-60
2021/06/07 08:58:26;;;;;;;5.22;2.65;;;;;;;;;;5012667;28;20456;-59
2021/06/07 09:00:52;;;;;;;4.13;2.10;;;;;;;;;;5009163;28;20037;-60
2021/06/07 09:03:21;;;;;;;4.53;2.35;;;;;;;;;;5008405;28;20048;-63
2021/06/07 09:05:55;;;;;;;2.97;2.60;;;;;;;;;;5007414;28;20046;-60
2021/06/07 09:08:21;;;;;;;4.53;2.58;;;;;;;;;;5006263;28;20124;-63
2021/06/07 09:10:49;;;;;;;3.72;2.58;;;;;;;;;;5005747;28;20030;-62
2021/06/07 09:13:16;;;;;;;4.28;2.40;;;;;;;;;;5005361;28;20034;-63
2021/06/07 09:15:43;;;;;;;3.88;2.20;;;;;;;;;;5006537;28;20124;-64
2021/06/07 09:18:11;;;;;;;4.68;2.28;;;;;;;;;;5012121;28;20053;-63
2021/06/07 09:20:38;;;;;;;3.25;2.25;;;;;;;;;;5011594;28;20068;-63
2021/06/07 09:23:06;;;;;;;2.88;2.35;;;;;;;;;;5010484;28;20101;-65
2021/06/07 09:25:34;;;;;;;3.53;2.05;;;;;;;;;;5010323;28;20121;-65
2021/06/07 09:28:00;;;;;;;2.58;1.90;;;;;;;;;;5015460;28;20876;-61
2021/06/07 09:30:30;;;;;;;3.72;2.08;;;;;;;;;;5016757;28;20541;-61
2021/06/07 09:33:18;;;;;;;3.70;1.98;;;;;;;;;;5015964;28;20531;-63
2021/06/07 09:35:45;;;;;;;1.98;1.77;;;;;;;;;;5014730;28;20045;-62
2021/06/07 09:38:12;;;;;;;2.15;1.60;;;;;;;;;;5017136;28;20105;-61
2021/06/07 09:40:39;;;;;;;3.67;1.92;;;;;;;;;;5015561;28;20128;-62
2021/06/07 09:43:05;;;;;;;3.25;1.95;;;;;;;;;;5016703;28;20155;-61
2021/06/07 09:45:40;;;;;;;3.95;2.33;;;;;;;;;;5014068;28;20039;-61
2021/06/07 09:48:06;;;;;;;;;;;;;;;;;;5016107;28;20072;-62
2021/06/07 09:50:32;;;;;;;2.15;1.88;;;;;;;;;;5015368;28;19968;-61
2021/06/07 09:52:58;;;;;;;3.10;2.35;;;;;;;;;;5014203;28;20041;-63
2021/06/07 09:55:26;;;;;;;2.20;1.67;;;;;;;;;;5016938;28;20033;-62
2021/06/07 09:57:54;;;;;;;1.80;1.70;;;;;;;;;;5013044;28;20511;-63
2021/06/07 10:00:52;;;;;;;2.70;1.88;;;;;;;;;;5014502;28;20383;-62
2021/06/07 10:03:28;;;;;;;2.20;1.60;;;;;;;;;;5015103;28;20553;-63
2021/06/07 10:05:56;;;;;;;2.85;1.83;;;;;;;;;;5015588;28;20044;-63
2021/06/07 10:08:23;;;;;;;4.35;1.60;;;;;;;;;;5012550;28;20516;-63
2021/06/07 10:10:49;;;;;;;1.70;1.35;;;;;;;;;;5013491;28;20515;-63
2021/06/07 10:13:15;;;;;;;1.65;1.50;;;;;;;;;;5013468;28;20037;-63
2021/06/07 10:15:43;;;;;;;1.70;1.40;;;;;;;;;;5013165;28;20073;-63
2021/06/07 10:18:11;;;;;;;3.85;1.50;;;;;;;;;;5020083;28;20037;-63
2021/06/07 10:20:47;;;;;;;1.40;1.20;;;;;;;;;;5012971;28;20068;-62
2021/06/07 10:23:14;;;;;;;2.22;1.42;;;;;;;;;;5014729;28;20029;-63
2021/06/07 10:25:40;;;;;;;5.15;1.63;;;;;;;;;;5014392;28;20033;-63
2021/06/07 10:28:06;;;;;;;2.35;1.70;;;;;;;;;;5013044;28;20460;-63
2021/06/07 10:30:37;;;;;;;3.15;2.08;;;;;;;;;;5009523;28;20033;-63
2021/06/07 10:33:23;;;;;;;3.03;1.30;;;;;;;;;;5008620;28;20116;-63
2021/06/07 10:35:49;;;;;;;4.00;2.13;;;;;;;;;;5009380;28;21919;-61
2021/06/07 10:38:27;;;;;;;5.80;2.80;;;;;;;;;;5009989;28;20120;-63
2021/06/07 10:40:53;;;;;;;12.25;3.95;;;;;;;;;;5008954;28;20030;-61
2021/06/07 10:43:19;;;;;;;9.48;4.05;;;;;;;;;;5012064;28;20373;-62
2021/06/07 10:45:46;;;;;;;5.90;2.95;;;;;;;;;;5009731;28;20033;-62
2021/06/07 10:48:13;;;;;;;8.90;2.75;;;;;;;;;;5007832;28;20030;-62
2021/06/07 10:50:44;;;;;;;9.80;2.60;;;;;;;;;;5009607;28;20037;-61
2021/06/07 10:53:21;;;;;;;3.13;2.40;;;;;;;;;;5010663;28;20036;-61
2021/06/07 10:55:47;;;;;;;5.07;2.38;;;;;;;;;;5013600;28;20475;-61
2021/06/07 10:58:15;;;;;;;4.72;2.20;;;;;;;;;;5015874;28;20053;-62
2021/06/07 11:00:45;;;;;;;10.23;2.45;;;;;;;;;;5015168;28;20385;-60
2021/06/07 11:03:41;;;;;;;6.05;2.35;;;;;;;;;;5010884;28;20323;-61
2021/06/07 11:06:07;;;;;;;6.63;2.65;;;;;;;;;;5007511;28;20049;-61
2021/06/07 11:08:34;;;;;;;4.22;1.98;;;;;;;;;;5012401;28;20049;-60
2021/06/07 11:11:14;;;;;;;3.28;2.00;;;;;;;;;;5016566;28;20289;-59
2021/06/07 11:13:50;;;;;;;3.22;2.30;;;;;;;;;;5017007;28;20108;-59
2021/06/07 11:16:26;;;;;;;4.28;2.00;;;;;;;;;;5016870;28;20041;-59
2021/06/07 11:18:58;;;;;;;2.80;2.35;;;;;;;;;;5014739;28;20053;-59
2021/06/07 11:21:26;;;;;;;4.00;2.58;;;;;;;;;;5014090;28;20044;-60
2021/06/07 11:23:52;;;;;;;11.48;2.65;;;;;;;;;;5011673;28;20029;-61
2021/06/07 11:26:20;;;;;;;9.02;2.47;;;;;;;;;;5013416;28;20030;-60
2021/06/07 11:28:50;;;;;;;5.60;2.25;;;;;;;;;;5013193;28;20045;-60
2021/06/07 11:31:16;;;;;;;6.95;1.92;;;;;;;;;;5014731;28;20115;-60
2021/06/07 11:33:59;;;;;;;3.80;1.90;;;;;;;;;;5014313;28;20135;-60
2021/06/07 11:36:43;;;;;;;3.28;1.85;;;;;;;;;;5015490;28;20049;-60
2021/06/07 11:39:29;;;;;;;3.05;2.08;;;;;;;;;;5012651;28;20496;-66
2021/06/07 11:41:59;;;;;;;2.20;2.00;;;;;;;;;;5014848;28;20522;-65
2021/06/07 11:44:44;;;;;;;2.35;1.98;;;;;;;;;;5016990;28;20136;-65
2021/06/07 11:47:17;;;;;;;2.45;2.25;;;;;;;;;;5013058;28;20141;-61
2021/06/07 11:49:58;;;;;;;5.35;2.33;;;;;;;;;;5015488;28;20084;-67
2021/06/07 11:52:30;;;;;;;3.13;2.10;;;;;;;;;;5018447;28;20404;-67
2021/06/07 11:54:56;;;;;;;5.10;2.30;;;;;;;;;;5012361;28;20133;-68
2021/06/07 11:57:23;;;;;;;2.83;2.05;;;;;;;;;;5011105;28;20034;-66
2021/06/07 11:59:53;;;;;;;8.55;3.20;;;;;;;;;;5010190;28;20030;-68
2021/06/07 12:02:20;;;;;;;4.47;2.60;;;;;;;;;;5007192;28;20026;-68
2021/06/07 12:04:47;;;;;;;6.40;2.40;;;;;;;;;;5014700;28;20424;-68
2021/06/07 12:07:13;;;;;;;3.53;2.30;;;;;;;;;;5011856;28;20053;-71
2021/06/07 12:09:42;;;;;;;6.25;2.53;;;;;;;;;;5009285;28;20029;-69
2021/06/07 12:12:10;;;;;;;17.52;2.70;;;;;;;;;;5016097;28;20044;-67
2021/06/07 12:14:39;;;;;;;20.33;4.50;;;;;;;;;;5013176;28;20400;-66
2021/06/07 12:17:17;;;;;;;12.05;2.60;;;;;;;;;;5009877;28;20444;-68
2021/06/07 12:19:44;;;;;;;5.75;2.85;;;;;;;;;;5004574;28;20143;-60
2021/06/07 12:22:27;;;;;;;6.80;2.90;;;;;;;;;;5006114;28;20060;-64
2021/06/07 12:24:58;;;;;;;6.28;3.13;;;;;;;;;;5011089;28;20030;-62
2021/06/07 12:30:18;;;;;;;5.65;2.55;;;;;;;;;;5014625;28;20137;-59
2021/06/07 12:32:44;;;;;;;4.95;2.63;;;;;;;;;;5013019;28;20539;-63
2021/06/07 12:35:15;;;;;;;5.05;2.30;;;;;;;;;;5014113;28;20535;-64
2021/06/07 12:37:46;;;;;;;6.45;2.80;;;;;;;;;;5012866;28;20353;-63
2021/06/07 12:40:14;;;;;;;6.20;2.70;;;;;;;;;;5013186;28;20025;-62
2021/06/07 12:42:40;;;;;;;4.07;3.65;;;;;;;;;;5012324;28;20403;-63
2021/06/07 12:45:22;;;;;;;5.43;2.80;;;;;;;;;;5012976;28;20444;-63
2021/06/07 12:47:49;;;;;;;3.42;3.13;;;;;;;;;;5012514;28;20037;-63
2021/06/07 12:50:16;;;;;;;4.60;2.50;;;;;;;;;;5013558;28;20033;-63
2021/06/07 12:52:45;;;;;;;5.35;2.63;;;;;;;;;;5008191;28;20435;-65
2021/06/07 12:55:12;;;;;;;5.13;3.38;;;;;;;;;;5012948;28;20037;-64
2021/06/07 12:57:38;;;;;;;6.13;2.80;;;;;;;;;;5011972;28;20112;-65
2021/06/07 13:00:23;;;;;;;2.67;2.47;;;;;;;;;;5015066;28;20083;-63
2021/06/07 13:02:49;;;;;;;5.45;2.42;;;;;;;;;;5009574;28;20036;-62
2021/06/07 13:05:32;;;;;;;4.95;2.72;;;;;;;;;;5005246;28;20500;-61
2021/06/07 13:08:07;;;;;;;5.68;2.88;;;;;;;;;;5004433;28;20059;-63
2021/06/07 13:10:43;;;;;;;4.28;2.90;;;;;;;;;;5013584;28;20495;-62
2021/06/07 13:13:16;;;;;;;7.45;2.90;;;;;;;;;;5007023;28;20146;-64
2021/06/07 13:15:42;;;;;;;5.47;2.10;;;;;;;;;;5006818;28;20042;-64
2021/06/07 13:18:08;;;;;;;2.92;2.50;;;;;;;;;;5012655;28;20557;-63
2021/06/07 13:20:35;;;;;;;3.25;2.63;;;;;;;;;;5008729;28;20487;-63
2021/06/07 13:23:01;;;;;;;3.95;2.75;;;;;;;;;;5003725;28;20022;-63
2021/06/07 13:25:31;;;;;;;5.53;2.63;;;;;;;;;;5003460;28;20126;-62
2021/06/07 13:28:16;;;;;;;4.88;2.70;;;;;;;;;;5006353;28;20033;-63
2021/06/07 13:30:42;;;;;;;5.00;2.30;;;;;;;;;;5007432;28;20042;-63
2021/06/07 13:33:27;;;;;;;2.65;2.33;;;;;;;;;;5009118;28;20033;-62
2021/06/07 13:36:04;;;;;;;11.88;3.40;;;;;;;;;;5007731;28;20519;-63
2021/06/07 13:38:30;;;;;;;2.65;2.45;;;;;;;;;;5009535;28;20025;-63
2021/06/07 13:41:06;;;;;;;3.63;2.60;;;;;;;;;;5007729;28;20080;-63
2021/06/07 13:43:32;;;;;;;5.20;2.58;;;;;;;;;;5005745;28;20037;-63
2021/06/07 13:45:58;;;;;;;3.40;2.20;;;;;;;;;;5006872;28;20519;-61
2021/06/07 13:48:25;;;;;;;7.53;2.97;;;;;;;;;;5007061;28;20377;-62
2021/06/07 13:50:55;;;;;;;4.30;2.60;;;;;;;;;;5009177;28;21937;-60
2021/06/07 13:53:23;;;;;;;2.72;2.17;;;;;;;;;;5010353;28;20543;-60
2021/06/07 13:55:49;;;;;;;5.70;2.20;;;;;;;;;;5008630;28;20053;-61
2021/06/07 13:58:19;;;;;;;4.88;2.67;;;;;;;;;;5004522;28;20022;-62
2021/06/07 14:00:53;;;;;;;4.47;2.20;;;;;;;;;;5002985;28;20062;-62
2021/06/07 14:03:26;;;;;;;4.10;2.40;;;;;;;;;;5014003;28;20121;-61
2021/06/07 14:05:53;;;;;;;9.15;2.92;;;;;;;;;;5015714;28;20036;-61
2021/06/07 14:08:21;;;;;;;21.60;5.20;;;;;;;;;;5015320;28;20057;-61
2021/06/07 14:10:49;;;;;;;9.63;3.10;;;;;;;;;;5016707;28;20029;-60
2021/06/07 14:13:15;;;;;;;9.05;3.30;;;;;;;;;;5013041;28;20195;-61
2021/06/07 14:15:41;;;;;;;5.18;2.70;;;;;;;;;;5012583;28;20091;-61
2021/06/07 14:18:07;;;;;;;4.22;2.88;;;;;;;;;;5011304;28;20112;-59
2021/06/07 14:20:33;;;;;;;5.35;2.97;;;;;;;;;;5013343;28;20061;-59
2021/06/07 14:25:44;;;;;;;5.53;3.05;;;;;;;;;;5009634;28;20044;-59
2021/06/07 14:28:14;;;;;;;4.45;3.80;;;;;;;;;;5007855;28;20412;-60
2021/06/07 14:30:44;;;;;;;3.95;3.33;;;;;;;;;;5016496;28;20063;-60
2021/06/07 14:33:11;;;;;;;3.97;3.10;;;;;;;;;;5008358;28;20480;-60
2021/06/07 14:35:38;;;;;;;5.85;3.40;;;;;;;;;;5009290;28;20037;-59
2021/06/07 14:38:05;;;;;;;5.53;3.75;;;;;;;;;;5008683;28;20033;-59
2021/06/07 14:40:35;;;;;;;9.02;3.80;;;;;;;;;;5009456;28;20037;-60
2021/06/07 14:43:01;;;;;;;3.65;3.20;;;;;;;;;;5005447;28;20567;-61
2021/06/07 14:45:27;;;;;;;5.65;3.40;;;;;;;;;;5010984;28;20148;-60
2021/06/07 14:47:53;;;;;;;4.07;2.88;;;;;;;;;;5015876;28;20030;-62
2021/06/07 14:50:20;;;;;;;2.90;2.70;;;;;;;;;;5018498;28;20046;-62
2021/06/07 14:52:46;;;;;;;3.50;3.13;;;;;;;;;;5015464;28;20030;-63